Time;durP1;ratioP1;P1;durP2;ratioP2;P2;SDS_P1;SDS_P2;PMS_P1;PMS_P2;Temp;Humidity;BMP_temperature;BMP_pressure;BME280_temperature;BME280_humidity;BME280_pressure;Samples;Min_cycle;Max_cycle;Signal;HPM_P1;HPM_P2
2022/09/01 00:00:40;;;;;;;3.63;1.50;;;14.20;99.90;;;;;;5112770;28;20485;-75
2022/09/01 00:03:09;;;;;;;5.63;2.15;;;14.20;99.90;;;;;;5112871;28;20050;-75
2022/09/01 00:05:35;;;;;;;3.28;1.60;;;14.20;99.90;;;;;;5112120;28;20043;-75
2022/09/01 00:08:03;;;;;;;3.30;1.40;;;14.10;99.90;;;;;;5113943;28;20062;-75
2022/09/01 00:10:28;;;;;;;3.17;1.55;;;14.10;99.90;;;;;;5112460;28;20058;-75
2022/09/01 00:12:54;;;;;;;2.53;1.15;;;14.20;99.90;;;;;;5112498;28;20044;-75
2022/09/01 00:15:20;;;;;;;4.03;1.20;;;14.10;99.90;;;;;;5113414;28;20047;-75
2022/09/01 00:17:46;;;;;;;3.30;1.42;;;14.10;99.90;;;;;;5112222;28;20081;-75
2022/09/01 00:20:12;;;;;;;2.75;1.85;;;14.00;99.90;;;;;;5113596;28;20125;-75
2022/09/01 00:22:38;;;;;;;3.42;1.60;;;14.00;99.90;;;;;;5112351;28;20054;-75
2022/09/01 00:25:05;;;;;;;3.08;1.58;;;14.00;99.90;;;;;;5111547;28;20051;-75
2022/09/01 00:27:31;;;;;;;4.40;1.20;;;13.90;99.90;;;;;;5112262;28;20078;-75
2022/09/01 00:29:57;;;;;;;3.97;1.50;;;13.90;99.90;;;;;;5112077;28;20513;-75
2022/09/01 00:32:24;;;;;;;1.45;1.20;;;13.90;99.90;;;;;;5112185;28;20093;-75
2022/09/01 00:34:49;;;;;;;3.92;1.30;;;13.80;99.90;;;;;;5112851;28;20055;-75
2022/09/01 00:37:15;;;;;;;7.40;1.60;;;13.80;99.90;;;;;;5112110;28;20031;-75
2022/09/01 00:39:41;;;;;;;2.58;1.75;;;13.80;99.90;;;;;;5113155;28;20074;-75
2022/09/01 00:42:06;;;;;;;3.10;1.50;;;13.70;99.90;;;;;;5111719;28;20035;-75
2022/09/01 00:44:35;;;;;;;1.52;1.00;;;13.80;99.90;;;;;;5113125;28;20043;-75
2022/09/01 00:47:00;;;;;;;5.53;1.85;;;13.70;99.90;;;;;;5111436;28;20089;-75
2022/09/01 00:49:35;;;;;;;2.45;1.20;;;13.60;99.90;;;;;;5112859;28;20078;-75
2022/09/01 00:52:32;;;;;;;3.80;1.20;;;13.70;99.90;;;;;;5111692;28;20051;-75
2022/09/01 00:55:08;;;;;;;3.55;1.23;;;13.60;99.90;;;;;;5091844;28;20048;-75
2022/09/01 00:57:34;;;;;;;2.58;1.48;;;13.60;99.90;;;;;;5111569;28;20074;-75
2022/09/01 01:00:09;;;;;;;2.53;1.13;;;13.70;99.90;;;;;;5112872;27;20048;-75
2022/09/01 01:02:37;;;;;;;1.52;1.20;;;13.60;99.90;;;;;;5112944;28;20035;-75
2022/09/01 01:05:05;;;;;;;2.90;1.40;;;13.50;99.90;;;;;;5111053;28;20069;-75
2022/09/01 01:07:36;;;;;;;3.35;1.40;;;13.60;99.90;;;;;;5094116;28;20047;-75
2022/09/01 01:10:04;;;;;;;2.78;0.95;;;13.50;99.90;;;;;;5111338;28;20043;-75
2022/09/01 01:12:29;;;;;;;3.47;1.38;;;13.50;99.90;;;;;;5112412;28;20123;-75
2022/09/01 01:14:55;;;;;;;2.38;1.35;;;13.50;99.90;;;;;;5111098;28;20122;-75
2022/09/01 01:17:22;;;;;;;7.95;1.52;;;13.40;99.90;;;;;;5111135;28;20036;-75
2022/09/01 01:23:01;;;;;;;3.17;1.58;;;13.40;99.90;;;;;;5111142;28;20090;-75
2022/09/01 01:25:32;;;;;;;6.40;1.40;;;13.30;99.90;;;;;;5111076;28;20501;-75
2022/09/01 01:28:12;;;;;;;3.40;1.63;;;13.30;99.90;;;;;;5112328;27;20040;-75
2022/09/01 01:30:40;;;;;;;3.95;1.70;;;13.30;99.90;;;;;;5111097;28;20047;-75
2022/09/01 01:33:07;;;;;;;3.05;1.25;;;13.20;99.90;;;;;;5111055;28;20089;-75
2022/09/01 01:35:33;;;;;;;1.98;1.30;;;13.20;99.90;;;;;;5110812;28;20048;-75
2022/09/01 01:38:00;;;;;;;3.35;1.38;;;13.20;99.90;;;;;;5110995;28;20054;-75
2022/09/01 01:40:28;;;;;;;3.10;1.70;;;13.10;99.90;;;;;;5110651;28;20054;-75
2022/09/01 01:42:56;;;;;;;1.83;1.23;;;13.20;99.90;;;;;;5112014;28;20040;-75
2022/09/01 01:45:23;;;;;;;3.65;1.48;;;13.10;99.90;;;;;;5110596;28;20078;-75
2022/09/01 01:47:52;;;;;;;1.60;1.27;;;13.10;99.90;;;;;;5110524;28;20027;-75
2022/09/01 01:50:24;;;;;;;3.35;1.23;;;13.00;99.90;;;;;;5110530;28;20100;-75
2022/09/01 01:52:49;;;;;;;2.10;1.33;;;13.00;99.90;;;;;;5112082;28;20205;-74
2022/09/01 01:55:18;;;;;;;4.00;1.60;;;13.00;99.90;;;;;;5093164;28;20451;-73
2022/09/01 01:57:49;;;;;;;2.03;1.38;;;12.90;99.90;;;;;;5110101;28;20077;-74
2022/09/01 02:00:18;;;;;;;1.63;1.42;;;12.90;99.90;;;;;;5110698;28;20044;-74
2022/09/01 02:02:52;;;;;;;3.33;1.13;;;12.90;99.90;;;;;;5110513;28;20100;-74
2022/09/01 02:05:23;;;;;;;1.75;1.65;;;12.90;99.90;;;;;;5110419;28;20055;-74
2022/09/01 02:08:03;;;;;;;4.88;1.98;;;12.90;99.90;;;;;;5111756;28;20119;-74
2022/09/01 02:10:34;;;;;;;3.53;1.33;;;12.80;99.90;;;;;;5110326;28;20085;-73
2022/09/01 02:13:06;;;;;;;4.82;1.77;;;12.80;99.90;;;;;;5110582;28;20120;-74
2022/09/01 02:15:43;;;;;;;1.70;1.38;;;12.80;99.90;;;;;;5109901;28;20040;-73
2022/09/01 02:18:12;;;;;;;4.13;1.55;;;12.70;99.90;;;;;;5111698;28;20043;-74
2022/09/01 02:20:39;;;;;;;3.58;1.77;;;12.70;99.90;;;;;;5110261;28;20050;-74
2022/09/01 02:23:09;;;;;;;2.63;1.58;;;12.70;99.90;;;;;;5110380;28;20413;-73
2022/09/01 02:25:37;;;;;;;1.85;1.42;;;12.60;99.90;;;;;;5109920;28;20119;-75
2022/09/01 02:28:08;;;;;;;2.47;1.70;;;12.70;99.90;;;;;;5110859;28;20044;-75
2022/09/01 02:30:35;;;;;;;5.88;1.70;;;12.60;99.90;;;;;;5093858;28;20047;-75
2022/09/01 02:33:01;;;;;;;4.05;1.60;;;12.60;99.90;;;;;;5110179;28;20115;-75
2022/09/01 02:35:36;;;;;;;3.13;1.35;;;12.50;99.90;;;;;;5109843;28;20181;-75
2022/09/01 02:38:05;;;;;;;2.10;1.50;;;12.60;99.90;;;;;;5110223;28;20039;-75
2022/09/01 02:40:32;;;;;;;2.53;1.77;;;12.50;99.90;;;;;;5110049;28;20047;-75
2022/09/01 02:42:59;;;;;;;1.65;1.50;;;12.50;99.90;;;;;;5110109;28;20109;-76
2022/09/01 02:45:28;;;;;;;3.13;1.70;;;12.40;99.90;;;;;;5109852;28;20387;-75
2022/09/01 02:47:56;;;;;;;4.80;1.52;;;12.40;99.90;;;;;;5109872;28;20119;-76
2022/09/01 02:50:23;;;;;;;2.40;1.30;;;12.40;99.90;;;;;;5110011;28;20489;-75
2022/09/01 02:52:53;;;;;;;4.72;1.67;;;12.40;99.90;;;;;;5110054;28;20043;-75
2022/09/01 02:55:21;;;;;;;4.82;1.85;;;12.30;99.90;;;;;;5092913;28;20431;-75
2022/09/01 02:57:54;;;;;;;4.90;1.70;;;12.30;99.90;;;;;;5109848;28;20040;-75
2022/09/01 03:00:21;;;;;;;2.30;2.10;;;12.30;99.90;;;;;;5111397;28;20118;-75
2022/09/01 03:02:51;;;;;;;2.78;1.85;;;12.20;99.90;;;;;;5110383;28;20044;-75
2022/09/01 03:05:25;;;;;;;2.35;1.90;;;12.20;99.90;;;;;;5092818;28;20367;-75
2022/09/01 03:08:06;;;;;;;4.72;1.80;;;12.20;99.90;;;;;;5110548;28;20051;-75
2022/09/01 03:10:40;;;;;;;2.72;1.88;;;12.20;99.90;;;;;;5114745;28;20142;-75
2022/09/01 03:13:09;;;;;;;2.78;1.73;;;12.10;99.90;;;;;;5114891;28;20035;-75
2022/09/01 03:15:36;;;;;;;3.90;2.38;;;12.10;99.90;;;;;;5113150;28;20043;-76
2022/09/01 03:18:03;;;;;;;2.78;1.90;;;12.00;99.90;;;;;;5113502;28;20043;-75
2022/09/01 03:20:32;;;;;;;2.83;1.70;;;12.10;99.90;;;;;;5113353;28;20051;-75
2022/09/01 03:23:00;;;;;;;3.35;1.65;;;12.10;99.90;;;;;;5114880;28;20478;-75
2022/09/01 03:25:28;;;;;;;4.93;1.80;;;12.10;99.90;;;;;;5113291;28;20731;-75
2022/09/01 03:27:54;;;;;;;2.50;2.00;;;12.10;99.90;;;;;;5113334;28;20482;-75
2022/09/01 03:30:20;;;;;;;2.30;1.63;;;12.00;99.90;;;;;;5113387;28;20046;-74
2022/09/01 03:32:46;;;;;;;2.95;2.05;;;12.00;99.90;;;;;;5113472;28;20032;-74
2022/09/01 03:35:13;;;;;;;3.88;2.33;;;12.00;99.90;;;;;;5112946;28;20039;-75
2022/09/01 03:37:38;;;;;;;4.07;1.77;;;12.00;99.90;;;;;;5096339;28;20724;-75
2022/09/01 03:40:07;;;;;;;2.35;1.83;;;11.90;99.90;;;;;;5114548;28;20122;-75
2022/09/01 03:42:34;;;;;;;2.55;1.83;;;12.00;99.90;;;;;;5113068;28;20047;-74
2022/09/01 03:45:06;;;;;;;2.25;1.77;;;11.90;99.90;;;;;;5112591;28;20138;-74
2022/09/01 03:47:32;;;;;;;4.90;1.77;;;11.90;99.90;;;;;;5113208;28;20047;-74
2022/09/01 03:49:58;;;;;;;5.93;2.05;;;11.90;99.90;;;;;;5112904;28;20088;-75
2022/09/01 03:52:28;;;;;;;2.63;1.98;;;11.90;99.90;;;;;;5114592;28;20070;-75
2022/09/01 03:54:54;;;;;;;2.97;2.40;;;11.90;99.90;;;;;;5095673;28;20542;-75
2022/09/01 03:57:21;;;;;;;3.97;2.17;;;11.80;99.90;;;;;;5112851;28;20036;-75
2022/09/01 03:59:48;;;;;;;3.03;1.70;;;11.80;99.90;;;;;;5112692;28;20118;-74
2022/09/01 04:02:13;;;;;;;5.30;1.80;;;11.80;99.90;;;;;;5112743;28;20096;-74
2022/09/01 04:04:39;;;;;;;3.05;1.80;;;11.70;99.90;;;;;;5112789;28;20047;-74
2022/09/01 04:07:06;;;;;;;3.20;1.67;;;11.70;99.90;;;;;;5112477;28;20039;-74
2022/09/01 04:09:33;;;;;;;3.08;2.00;;;11.80;99.90;;;;;;5112593;28;20398;-74
2022/09/01 04:11:59;;;;;;;4.97;1.95;;;11.80;99.90;;;;;;5112476;28;20088;-74
2022/09/01 04:14:26;;;;;;;3.65;1.88;;;11.80;99.90;;;;;;5113761;28;20036;-74
2022/09/01 04:19:38;;;;;;;1.70;1.60;;;11.70;99.90;;;;;;5112090;28;20074;-74
2022/09/01 04:22:04;;;;;;;3.40;1.95;;;11.80;99.90;;;;;;5112230;28;20043;-74
2022/09/01 04:24:31;;;;;;;2.60;1.90;;;11.70;99.90;;;;;;5112426;28;20055;-74
2022/09/01 04:27:00;;;;;;;2.75;2.05;;;11.70;99.90;;;;;;5111688;28;20048;-73
2022/09/01 04:29:27;;;;;;;3.15;1.80;;;11.70;99.90;;;;;;5111987;28;20652;-74
2022/09/01 04:32:01;;;;;;;3.50;1.80;;;11.70;99.90;;;;;;5112076;28;20098;-73
2022/09/01 04:34:29;;;;;;;3.75;1.67;;;11.70;99.90;;;;;;5116598;28;20122;-74
2022/09/01 04:36:56;;;;;;;2.38;1.73;;;11.60;99.90;;;;;;5113052;28;20497;-74
2022/09/01 04:39:23;;;;;;;3.67;1.52;;;11.60;99.90;;;;;;5111931;28;20093;-74
2022/09/01 04:41:49;;;;;;;2.13;1.73;;;11.60;99.90;;;;;;5094855;28;20054;-73
2022/09/01 04:44:17;;;;;;;2.33;2.08;;;11.60;99.90;;;;;;5111932;28;20604;-74
2022/09/01 04:46:46;;;;;;;3.03;1.80;;;11.60;99.90;;;;;;5111247;28;20045;-73
2022/09/01 04:49:18;;;;;;;2.47;1.83;;;11.50;99.90;;;;;;5111765;28;20126;-73
2022/09/01 04:51:46;;;;;;;4.93;1.75;;;11.60;99.90;;;;;;5111560;28;20039;-73
2022/09/01 04:54:13;;;;;;;3.50;1.75;;;11.50;99.90;;;;;;5111930;28;20047;-73
2022/09/01 04:56:40;;;;;;;2.15;1.88;;;11.60;99.90;;;;;;5111332;28;20378;-74
2022/09/01 04:59:09;;;;;;;3.28;2.08;;;11.60;99.90;;;;;;5111651;28;20066;-74
2022/09/01 05:01:42;;;;;;;4.53;2.45;;;11.50;99.90;;;;;;5111593;28;20052;-74
2022/09/01 05:04:32;;;;;;;3.50;1.92;;;11.60;99.90;;;;;;5112828;28;20031;-73
2022/09/01 05:06:59;;;;;;;2.78;2.28;;;11.60;99.90;;;;;;5110939;28;20044;-73
2022/09/01 05:09:28;;;;;;;4.88;2.10;;;11.50;99.90;;;;;;5111339;28;20394;-74
2022/09/01 05:11:55;;;;;;;2.28;1.60;;;11.60;99.90;;;;;;5111225;28;20043;-73
2022/09/01 05:14:21;;;;;;;4.20;2.30;;;11.60;99.90;;;;;;5111383;28;20035;-73
2022/09/01 05:16:48;;;;;;;4.07;1.77;;;11.70;99.90;;;;;;5110817;28;20071;-73
2022/09/01 05:19:16;;;;;;;2.53;1.98;;;11.70;99.90;;;;;;5111142;28;20093;-73
2022/09/01 05:21:44;;;;;;;7.22;3.78;;;11.70;99.90;;;;;;5111046;28;20059;-74
2022/09/01 05:24:13;;;;;;;2.88;1.95;;;11.80;99.90;;;;;;5111031;28;20532;-73
2022/09/01 05:26:41;;;;;;;3.90;1.98;;;11.80;99.90;;;;;;5110498;28;20122;-73
2022/09/01 05:29:12;;;;;;;5.32;1.50;;;11.80;99.90;;;;;;5112185;28;20036;-73
2022/09/01 05:31:39;;;;;;;2.13;1.90;;;11.90;99.90;;;;;;5110549;28;20043;-73
2022/09/01 05:34:08;;;;;;;6.35;2.75;;;11.90;99.90;;;;;;5110686;28;20089;-73
2022/09/01 05:36:35;;;;;;;3.55;1.98;;;11.90;99.90;;;;;;5110581;28;20036;-73
2022/09/01 05:39:01;;;;;;;3.40;2.30;;;12.00;99.90;;;;;;5112002;28;20051;-73
2022/09/01 05:41:27;;;;;;;2.35;1.80;;;12.00;99.90;;;;;;5107905;28;20085;-76
2022/09/01 05:43:54;;;;;;;6.38;1.95;;;12.00;99.90;;;;;;5093518;28;20043;-75
2022/09/01 05:46:22;;;;;;;4.15;2.13;;;12.10;99.90;;;;;;5110390;28;20051;-76
2022/09/01 05:48:50;;;;;;;5.20;1.80;;;12.20;99.90;;;;;;5107036;27;20051;-76
2022/09/01 05:51:21;;;;;;;5.07;2.20;;;12.20;99.90;;;;;;5103697;28;20123;-75
2022/09/01 05:53:50;;;;;;;4.28;2.25;;;12.30;99.90;;;;;;5105202;28;20108;-76
2022/09/01 05:56:18;;;;;;;3.88;1.88;;;12.40;99.90;;;;;;5098806;28;20036;-76
2022/09/01 05:58:47;;;;;;;2.65;1.60;;;12.40;99.90;;;;;;5103877;28;20477;-76
2022/09/01 06:01:25;;;;;;;3.85;1.83;;;12.40;99.90;;;;;;5106025;28;20067;-77
2022/09/01 06:03:53;;;;;;;4.47;2.15;;;12.50;99.90;;;;;;5101380;28;20169;-76
2022/09/01 06:06:23;;;;;;;7.57;2.65;;;12.60;99.90;;;;;;5104741;28;20036;-77
2022/09/01 06:08:50;;;;;;;5.32;1.98;;;12.60;99.90;;;;;;5105697;28;20462;-76
2022/09/01 06:11:17;;;;;;;2.03;1.65;;;12.70;99.90;;;;;;5106071;28;20028;-76
2022/09/01 06:13:46;;;;;;;2.20;1.50;;;12.70;99.90;;;;;;5104938;28;20040;-76
2022/09/01 06:16:14;;;;;;;4.68;2.10;;;12.80;99.90;;;;;;5137430;27;20028;-77
2022/09/01 06:18:42;;;;;;;6.22;2.13;;;12.90;99.90;;;;;;5105215;28;20092;-77
2022/09/01 06:21:10;;;;;;;3.30;2.03;;;12.90;99.90;;;;;;5101968;28;20537;-76
2022/09/01 06:23:37;;;;;;;3.60;1.80;;;12.90;99.90;;;;;;5100455;28;20031;-76
2022/09/01 06:26:02;;;;;;;6.40;2.05;;;13.00;99.90;;;;;;5104624;28;20039;-76
2022/09/01 06:28:28;;;;;;;5.28;2.10;;;13.00;99.90;;;;;;5102567;28;20570;-76
2022/09/01 06:30:56;;;;;;;3.45;2.13;;;13.10;99.90;;;;;;5102387;28;20062;-76
2022/09/01 06:33:24;;;;;;;3.13;1.67;;;13.10;99.90;;;;;;5104814;28;20114;-75
2022/09/01 06:35:51;;;;;;;2.65;2.00;;;13.20;99.90;;;;;;5105229;28;20043;-76
2022/09/01 06:38:17;;;;;;;3.65;2.10;;;13.30;99.90;;;;;;5099316;28;20527;-76
2022/09/01 06:40:44;;;;;;;3.22;2.28;;;13.40;99.90;;;;;;5103512;28;20451;-76
2022/09/01 06:43:12;;;;;;;3.38;1.88;;;13.40;99.90;;;;;;5105264;28;20039;-75
2022/09/01 06:45:41;;;;;;;3.55;2.22;;;13.50;99.90;;;;;;5108904;28;20131;-76
2022/09/01 06:48:07;;;;;;;2.25;1.73;;;13.70;99.90;;;;;;5105889;28;20059;-76
2022/09/01 06:50:33;;;;;;;3.67;1.92;;;13.80;99.90;;;;;;5107936;28;20550;-75
2022/09/01 06:53:09;;;;;;;6.00;2.22;;;13.80;99.90;;;;;;5109236;28;20047;-75
2022/09/01 06:55:37;;;;;;;3.40;2.10;;;13.90;99.90;;;;;;5142254;27;20042;-75
2022/09/01 06:58:08;;;;;;;4.75;1.98;;;14.00;99.90;;;;;;5108839;28;20077;-75
2022/09/01 07:00:38;;;;;;;4.13;2.08;;;14.00;99.90;;;;;;5107272;28;20046;-75
2022/09/01 07:03:08;;;;;;;8.90;1.98;;;14.20;99.90;;;;;;5107461;28;20118;-76
2022/09/01 07:05:37;;;;;;;3.92;1.88;;;14.30;99.90;;;;;;5107726;28;20402;-76
2022/09/01 07:08:08;;;;;;;3.80;2.03;;;14.40;99.90;;;;;;5140068;27;20096;-77
2022/09/01 07:10:39;;;;;;;3.00;2.10;;;14.60;99.90;;;;;;5106961;28;20477;-77
2022/09/01 07:13:06;;;;;;;4.32;1.92;;;14.90;99.90;;;;;;5142288;27;20036;-77
2022/09/01 07:15:37;;;;;;;4.13;2.47;;;15.30;99.90;;;;;;5108214;28;20234;-77
2022/09/01 07:18:03;;;;;;;2.15;1.83;;;15.80;99.90;;;;;;5091052;28;20080;-77
2022/09/01 07:20:30;;;;;;;2.38;1.45;;;16.40;99.90;;;;;;5108238;28;20412;-76
2022/09/01 07:22:56;;;;;;;4.57;1.83;;;17.20;99.90;;;;;;5109537;28;20089;-76
2022/09/01 07:25:22;;;;;;;2.83;1.63;;;18.10;99.90;;;;;;5105224;28;20522;-77
2022/09/01 07:27:49;;;;;;;2.92;2.00;;;18.90;99.90;;;;;;5141731;27;20075;-76
2022/09/01 07:30:19;;;;;;;4.07;1.70;;;19.50;99.90;;;;;;5105985;28;20190;-76
2022/09/01 07:32:46;;;;;;;6.85;1.80;;;20.00;99.90;;;;;;5109459;28;20063;-76
2022/09/01 07:35:15;;;;;;;4.60;1.60;;;20.40;99.90;;;;;;5108573;28;20062;-76
2022/09/01 07:37:41;;;;;;;4.32;1.55;;;20.90;99.90;;;;;;5105648;28;20028;-78
2022/09/01 07:40:11;;;;;;;1.70;1.50;;;21.10;99.90;;;;;;5107253;28;20043;-78
2022/09/01 07:42:39;;;;;;;3.22;1.40;;;21.40;99.90;;;;;;5107588;28;20497;-78
2022/09/01 07:45:07;;;;;;;1.73;1.30;;;21.60;99.90;;;;;;5108542;28;20071;-78
2022/09/01 07:47:35;;;;;;;2.33;1.20;;;21.80;99.90;;;;;;5107025;28;20043;-76
2022/09/01 07:50:07;;;;;;;1.77;1.13;;;22.00;99.90;;;;;;5140061;27;20039;-77
2022/09/01 07:52:41;;;;;;;4.07;1.30;;;22.00;99.90;;;;;;5104575;28;20030;-76
2022/09/01 07:55:14;;;;;;;4.15;1.30;;;22.20;99.90;;;;;;5121943;28;20085;-76
2022/09/01 07:57:41;;;;;;;2.53;1.02;;;22.40;99.90;;;;;;5090819;28;20078;-76
2022/09/01 08:00:10;;;;;;;5.43;1.45;;;22.70;99.90;;;;;;5106249;28;20040;-76
2022/09/01 08:02:39;;;;;;;2.55;1.30;;;23.00;99.90;;;;;;5100802;28;20039;-77
2022/09/01 08:05:16;;;;;;;1.25;0.80;;;23.10;99.90;;;;;;5107226;28;20039;-76
2022/09/01 08:07:42;;;;;;;2.65;1.23;;;23.30;98.80;;;;;;5140288;27;20035;-76
2022/09/01 08:10:08;;;;;;;2.58;1.20;;;23.60;99.40;;;;;;5105891;28;20329;-76
2022/09/01 08:12:34;;;;;;;1.83;1.00;;;23.80;98.80;;;;;;5090406;28;20044;-76
2022/09/01 08:15:05;;;;;;;3.17;1.00;;;24.00;97.40;;;;;;5089264;28;20043;-76
2022/09/01 08:17:30;;;;;;;3.28;1.20;;;24.10;95.60;;;;;;5090702;28;20074;-76
2022/09/01 08:19:56;;;;;;;6.50;2.25;;;24.30;95.70;;;;;;5103196;28;20075;-75
2022/09/01 08:22:24;;;;;;;2.85;1.10;;;24.30;94.90;;;;;;5107823;28;20088;-76
2022/09/01 08:24:51;;;;;;;4.57;1.45;;;24.40;93.40;;;;;;5125535;27;20555;-76
2022/09/01 08:27:17;;;;;;;2.00;1.10;;;24.50;92.40;;;;;;5104088;28;20067;-76
2022/09/01 08:29:43;;;;;;;1.35;0.98;;;24.50;91.40;;;;;;5107096;28;20532;-75
2022/09/01 08:32:10;;;;;;;7.32;1.08;;;24.50;91.10;;;;;;5107403;28;20115;-76
2022/09/01 08:34:36;;;;;;;4.28;1.00;;;24.60;90.70;;;;;;5140971;27;20042;-75
2022/09/01 08:37:04;;;;;;;2.13;1.42;;;24.70;90.80;;;;;;5106845;28;20039;-76
2022/09/01 08:39:29;;;;;;;1.15;0.98;;;24.90;89.90;;;;;;5138869;27;20066;-75
2022/09/01 08:42:18;;;;;;;3.97;1.05;;;24.80;86.10;;;;;;5086067;28;20489;-76
2022/09/01 08:44:53;;;;;;;2.88;1.10;;;24.70;82.70;;;;;;5106043;28;20134;-75
2022/09/01 08:47:19;;;;;;;4.18;1.15;;;24.60;83.20;;;;;;5139444;27;20470;-75
2022/09/01 08:49:47;;;;;;;2.40;1.08;;;24.50;84.90;;;;;;5105398;28;20481;-76
2022/09/01 08:52:25;;;;;;;3.67;0.95;;;24.60;84.30;;;;;;5105874;28;21350;-76
2022/09/01 08:55:06;;;;;;;3.75;0.90;;;24.90;82.40;;;;;;5088477;28;20054;-77
2022/09/01 08:57:34;;;;;;;1.27;1.00;;;25.00;78.60;;;;;;5105212;28;20032;-77
2022/09/01 08:59:59;;;;;;;1.92;0.60;;;25.20;81.50;;;;;;5105852;28;20073;-78
2022/09/01 09:02:25;;;;;;;3.20;0.70;;;25.20;79.40;;;;;;5105904;28;20119;-77
2022/09/01 09:05:41;;;;;;;1.80;0.88;;;25.20;79.20;;;;;;5107271;28;20036;-78
2022/09/01 09:08:23;;;;;;;1.52;0.70;;;25.20;73.60;;;;;;5047574;28;20131;-78
2022/09/01 09:11:05;;;;;;;1.23;0.63;;;25.30;77.40;;;;;;5088957;28;20062;-77
2022/09/01 09:13:46;;;;;;;2.45;0.93;;;25.30;75.30;;;;;;5105749;28;20045;-77
2022/09/01 09:16:26;;;;;;;1.70;0.60;;;25.30;74.40;;;;;;5138920;27;20035;-78
2022/09/01 09:19:17;;;;;;;2.78;0.60;;;25.20;70.20;;;;;;5088131;28;20544;-76
2022/09/01 09:21:46;;;;;;;1.15;0.68;;;25.20;72.20;;;;;;5089524;28;20039;-77
2022/09/01 09:24:45;;;;;;;4.65;0.80;;;25.30;73.00;;;;;;5107126;28;20047;-78
2022/09/01 09:27:20;;;;;;;1.00;0.80;;;25.50;69.70;;;;;;5105801;28;20110;-77
2022/09/01 09:29:52;;;;;;;2.13;0.80;;;25.70;70.70;;;;;;5105768;28;20600;-77
2022/09/01 09:32:19;;;;;;;1.40;0.70;;;25.80;70.50;;;;;;5141661;27;20047;-76
2022/09/01 09:34:45;;;;;;;2.85;0.95;;;26.20;70.00;;;;;;5108851;27;20090;-76
2022/09/01 09:37:24;;;;;;;2.10;0.77;;;26.20;69.60;;;;;;5106194;28;20031;-76
2022/09/01 09:40:13;;;;;;;1.42;0.50;;;26.30;66.60;;;;;;5105472;28;20486;-77
2022/09/01 09:43:00;;;;;;;1.17;0.60;;;26.40;66.60;;;;;;5107651;28;20055;-77
2022/09/01 09:45:33;;;;;;;1.98;1.10;;;26.60;66.90;;;;;;5105562;28;20070;-76
2022/09/01 09:48:03;;;;;;;6.65;0.80;;;26.70;62.90;;;;;;5090257;28;20069;-77
2022/09/01 09:50:42;;;;;;;2.90;0.65;;;26.50;63.60;;;;;;5106322;28;20636;-76
2022/09/01 09:53:14;;;;;;;1.35;0.50;;;26.30;62.90;;;;;;5106109;28;20078;-76
2022/09/01 09:55:57;;;;;;;1.55;0.65;;;26.30;62.70;;;;;;5119949;27;20123;-77
2022/09/01 09:58:28;;;;;;;2.28;0.50;;;26.50;61.90;;;;;;5105614;28;20111;-76
2022/09/01 10:01:15;;;;;;;1.23;0.57;;;26.70;62.10;;;;;;5106468;28;20044;-76
2022/09/01 10:03:47;;;;;;;1.85;0.80;;;26.80;60.20;;;;;;5103835;28;20038;-77
2022/09/01 10:06:33;;;;;;;2.20;0.95;;;27.00;60.70;;;;;;5103653;28;20126;-78
2022/09/01 10:09:03;;;;;;;1.00;0.60;;;27.10;60.10;;;;;;5137603;27;20127;-77
2022/09/01 10:11:37;;;;;;;1.35;0.40;;;27.20;59.60;;;;;;5134231;27;20499;-77
2022/09/01 10:14:20;;;;;;;0.70;0.47;;;27.10;58.80;;;;;;5102677;28;20054;-77
2022/09/01 10:16:52;;;;;;;1.55;0.45;;;26.50;57.60;;;;;;5137263;27;20482;-78
2022/09/01 10:19:18;;;;;;;2.47;0.80;;;26.10;57.60;;;;;;5110418;28;20035;-77
2022/09/01 10:21:45;;;;;;;2.25;0.60;;;25.50;58.70;;;;;;5109356;28;20127;-75
2022/09/01 10:24:44;;;;;;;2.30;0.52;;;25.40;58.90;;;;;;5090360;28;20044;-80
2022/09/01 10:27:19;;;;;;;4.10;0.75;;;25.40;58.40;;;;;;5107005;28;20054;-77
2022/09/01 10:30:09;;;;;;;3.13;0.60;;;25.20;59.50;;;;;;5108779;28;20039;-77
2022/09/01 10:32:49;;;;;;;3.85;1.38;;;25.30;59.00;;;;;;5112988;28;20397;-77
2022/09/01 10:35:45;;;;;;;1.70;0.90;;;25.40;58.80;;;;;;5113403;28;20047;-77
2022/09/01 10:38:19;;;;;;;5.70;0.80;;;25.40;56.40;;;;;;5113462;28;20044;-76
2022/09/01 10:41:05;;;;;;;2.95;0.60;;;25.20;59.70;;;;;;5114023;28;20050;-77
2022/09/01 10:43:41;;;;;;;1.40;0.88;;;25.30;58.90;;;;;;5112211;28;20095;-76
2022/09/01 10:46:27;;;;;;;0.82;0.50;;;25.50;57.90;;;;;;5096487;28;20054;-75
2022/09/01 10:48:56;;;;;;;1.10;0.75;;;25.60;57.40;;;;;;5094717;28;20055;-77
2022/09/01 10:51:21;;;;;;;1.20;0.50;;;25.70;58.40;;;;;;5113249;28;20036;-76
2022/09/01 10:53:56;;;;;;;2.28;0.50;;;25.70;57.70;;;;;;5112783;28;20035;-79
2022/09/01 10:56:37;;;;;;;1.65;0.40;;;25.70;57.80;;;;;;5097371;28;20058;-80
2022/09/01 10:59:23;;;;;;;2.03;0.60;;;25.60;56.90;;;;;;5096955;28;20040;-81
2022/09/01 11:01:49;;;;;;;1.95;0.50;;;25.40;56.60;;;;;;5097828;28;20147;-80
2022/09/01 11:04:30;;;;;;;1.50;0.50;;;25.00;57.40;;;;;;5096925;28;20118;-80
2022/09/01 11:07:25;;;;;;;3.73;0.50;;;24.80;57.60;;;;;;5113214;28;20114;-80
2022/09/01 11:10:19;;;;;;;1.77;0.40;;;24.90;57.20;;;;;;5096334;28;20293;-80
2022/09/01 11:13:06;;;;;;;1.45;0.45;;;25.00;56.10;;;;;;5113640;28;20059;-79
2022/09/01 11:15:34;;;;;;;1.25;0.45;;;24.90;56.20;;;;;;5113394;28;20086;-80
2022/09/01 11:18:01;;;;;;;0.73;0.32;;;24.90;57.50;;;;;;5096544;28;20097;-79
2022/09/01 11:20:28;;;;;;;3.22;0.47;;;24.70;56.60;;;;;;5114810;28;20119;-80
2022/09/01 11:23:06;;;;;;;3.45;0.85;;;24.30;57.00;;;;;;5096376;28;20040;-80
2022/09/01 11:25:44;;;;;;;3.55;0.70;;;23.90;57.10;;;;;;5096472;28;20506;-80
2022/09/01 11:28:24;;;;;;;1.60;0.73;;;23.80;58.70;;;;;;5112748;28;20046;-79
2022/09/01 11:31:04;;;;;;;6.10;0.50;;;24.00;58.00;;;;;;5114377;28;20456;-80
2022/09/01 11:33:42;;;;;;;2.50;0.50;;;24.20;58.50;;;;;;5114318;28;20039;-80
2022/09/01 11:36:25;;;;;;;3.40;0.90;;;24.30;58.20;;;;;;5118390;28;20057;-79
2022/09/01 11:39:03;;;;;;;4.15;0.80;;;24.10;57.20;;;;;;5104090;28;20068;-79
2022/09/01 11:41:38;;;;;;;1.27;0.50;;;23.80;57.90;;;;;;5113663;28;20398;-77
2022/09/01 11:44:20;;;;;;;1.23;0.40;;;23.80;58.50;;;;;;5113917;28;20047;-77
2022/09/01 11:46:46;;;;;;;3.10;0.43;;;24.00;57.90;;;;;;5096361;28;20237;-78
2022/09/01 11:49:32;;;;;;;2.28;0.50;;;24.00;58.20;;;;;;5113390;28;20054;-78
2022/09/01 11:51:59;;;;;;;0.65;0.60;;;23.80;57.70;;;;;;5114196;28;20412;-78
2022/09/01 11:54:27;;;;;;;2.63;0.75;;;23.80;58.90;;;;;;5112366;28;20076;-77
2022/09/01 11:56:53;;;;;;;3.25;0.80;;;24.00;59.30;;;;;;5112064;28;20047;-78
2022/09/01 11:59:36;;;;;;;2.40;0.57;;;24.30;58.50;;;;;;5095263;28;20044;-76
2022/09/01 12:02:02;;;;;;;1.88;0.65;;;24.60;57.10;;;;;;5112642;28;20035;-77
2022/09/01 12:04:36;;;;;;;5.13;0.63;;;24.50;57.60;;;;;;5114050;28;20039;-82
2022/09/01 12:07:22;;;;;;;0.80;0.70;;;24.50;58.00;;;;;;5113450;28;20031;-82
2022/09/01 12:09:48;;;;;;;3.17;0.70;;;24.50;58.60;;;;;;5096316;28;20043;-81
2022/09/01 12:12:27;;;;;;;2.25;0.68;;;24.70;58.00;;;;;;5112953;28;20031;-78
2022/09/01 12:15:06;;;;;;;0.63;0.50;;;24.90;57.20;;;;;;5113293;28;20043;-80
2022/09/01 12:17:33;;;;;;;1.15;0.50;;;24.90;57.00;;;;;;5095917;28;20048;-80
2022/09/01 12:20:18;;;;;;;6.25;0.60;;;25.00;57.60;;;;;;5112451;28;20051;-80
2022/09/01 12:22:44;;;;;;;1.10;0.52;;;25.30;57.30;;;;;;5096703;28;20075;-80
2022/09/01 12:25:21;;;;;;;3.33;0.70;;;25.50;56.60;;;;;;5096653;28;20476;-79
2022/09/01 12:27:47;;;;;;;7.35;1.17;;;25.50;55.30;;;;;;5096329;28;20387;-79
2022/09/01 12:30:13;;;;;;;5.35;0.80;;;25.30;56.40;;;;;;5096361;28;20123;-80
2022/09/01 12:32:39;;;;;;;0.63;0.57;;;25.20;56.30;;;;;;5096154;28;20062;-81
2022/09/01 12:35:20;;;;;;;2.25;0.88;;;24.80;56.40;;;;;;5096508;28;20481;-80
2022/09/01 12:37:47;;;;;;;;;;;24.70;56.50;;;;;;5115120;28;20370;-80
2022/09/01 12:40:31;;;;;;;5.10;0.47;;;24.40;56.80;;;;;;5113211;28;20469;-81
2022/09/01 12:42:57;;;;;;;1.70;0.50;;;24.20;56.20;;;;;;5114806;28;20039;-81
2022/09/01 12:45:44;;;;;;;1.38;0.68;;;24.20;57.50;;;;;;5113231;28;20039;-81
2022/09/01 12:48:28;;;;;;;0.50;0.43;;;24.50;55.70;;;;;;5113823;28;20104;-80
2022/09/01 12:50:54;;;;;;;2.50;0.73;;;24.70;55.20;;;;;;5112011;28;20054;-82
2022/09/01 12:53:23;;;;;;;0.70;0.60;;;24.80;55.90;;;;;;5111353;28;20172;-83
2022/09/01 12:56:24;;;;;;;3.03;0.70;;;24.70;55.90;;;;;;5094151;28;20040;-82
2022/09/01 12:58:55;;;;;;;1.77;0.40;;;24.80;57.30;;;;;;5077057;28;20138;-83
2022/09/01 13:01:31;;;;;;;1.90;0.77;;;25.00;56.40;;;;;;5094201;28;20124;-82
2022/09/01 13:04:11;;;;;;;4.25;0.52;;;25.00;55.70;;;;;;5093980;28;20087;-81
2022/09/01 13:06:36;;;;;;;1.05;0.65;;;25.00;55.20;;;;;;5093870;28;20067;-82
2022/09/01 13:09:02;;;;;;;1.17;0.45;;;25.00;55.10;;;;;;5094228;28;20063;-82
2022/09/01 13:11:34;;;;;;;0.47;0.40;;;25.10;56.20;;;;;;5095515;28;20059;-82
2022/09/01 13:14:00;;;;;;;2.20;0.55;;;25.20;55.60;;;;;;5095852;28;20046;-80